sensor_id;sensor_type;location;lat;lon;timestamp;temperature;humidity
64855;DHT22;51321;50.428;8.378;2022-10-16T00:02:01;14.00;99.90
64855;DHT22;51321;50.428;8.378;2022-10-16T00:04:22;14.10;99.90
64855;DHT22;51321;50.428;8.378;2022-10-16T00:06:44;14.00;99.90
64855;DHT22;51321;50.428;8.378;2022-10-16T00:09:06;14.00;99.90
64855;DHT22;51321;50.428;8.378;2022-10-16T00:11:29;14.00;99.90
64855;DHT22;51321;50.428;8.378;2022-10-16T00:13:55;14.10;99.90
64855;DHT22;51321;50.428;8.378;2022-10-16T00:16:17;13.80;99.90
64855;DHT22;51321;50.428;8.378;2022-10-16T00:18:41;13.70;99.90
64855;DHT22;51321;50.428;8.378;2022-10-16T00:21:03;13.60;99.90
64855;DHT22;51321;50.428;8.378;2022-10-16T00:23:25;13.50;99.90
64855;DHT22;51321;50.428;8.378;2022-10-16T00:25:54;13.60;99.90
64855;DHT22;51321;50.428;8.378;2022-10-16T00:28:17;13.60;99.90
64855;DHT22;51321;50.428;8.378;2022-10-16T00:30:38;13.60;99.90
64855;DHT22;51321;50.428;8.378;2022-10-16T00:33:00;13.50;99.90
64855;DHT22;51321;50.428;8.378;2022-10-16T00:35:24;13.50;99.90
64855;DHT22;51321;50.428;8.378;2022-10-16T00:37:46;13.50;99.90
64855;DHT22;51321;50.428;8.378;2022-10-16T00:40:08;13.50;99.90
64855;DHT22;51321;50.428;8.378;2022-10-16T00:42:30;13.50;99.90
64855;DHT22;51321;50.428;8.378;2022-10-16T00:44:52;13.50;99.90
64855;DHT22;51321;50.428;8.378;2022-10-16T00:47:17;13.50;99.90
64855;DHT22;51321;50.428;8.378;2022-10-16T00:49:40;13.50;99.90
64855;DHT22;51321;50.428;8.378;2022-10-16T00:52:04;13.50;99.90
64855;DHT22;51321;50.428;8.378;2022-10-16T00:54:28;13.50;99.90
64855;DHT22;51321;50.428;8.378;2022-10-16T00:56:50;13.50;99.90
64855;DHT22;51321;50.428;8.378;2022-10-16T00:59:14;13.50;99.90
64855;DHT22;51321;50.428;8.378;2022-10-16T01:01:36;13.40;99.90
64855;DHT22;51321;50.428;8.378;2022-10-16T01:03:58;13.40;99.90
64855;DHT22;51321;50.428;8.378;2022-10-16T01:06:22;13.40;99.90
64855;DHT22;51321;50.428;8.378;2022-10-16T01:08:49;13.30;99.90
64855;DHT22;51321;50.428;8.378;2022-10-16T01:11:17;13.40;99.90
64855;DHT22;51321;50.428;8.378;2022-10-16T01:13:41;13.50;99.90
64855;DHT22;51321;50.428;8.378;2022-10-16T01:16:06;13.40;99.90
64855;DHT22;51321;50.428;8.378;2022-10-16T01:18:30;13.40;99.90
64855;DHT22;51321;50.428;8.378;2022-10-16T01:20:58;13.40;99.90
64855;DHT22;51321;50.428;8.378;2022-10-16T01:23:28;13.40;99.90
64855;DHT22;51321;50.428;8.378;2022-10-16T01:26:08;13.40;99.90
64855;DHT22;51321;50.428;8.378;2022-10-16T01:28:34;13.40;99.90
64855;DHT22;51321;50.428;8.378;2022-10-16T01:30:57;13.40;99.90
64855;DHT22;51321;50.428;8.378;2022-10-16T01:33:20;13.40;99.90
64855;DHT22;51321;50.428;8.378;2022-10-16T01:35:42;13.40;99.90
64855;DHT22;51321;50.428;8.378;2022-10-16T01:38:06;13.50;99.90
64855;DHT22;51321;50.428;8.378;2022-10-16T01:40:29;13.50;99.90
64855;DHT22;51321;50.428;8.378;2022-10-16T01:42:53;13.40;99.90
64855;DHT22;51321;50.428;8.378;2022-10-16T01:45:18;13.30;99.90
64855;DHT22;51321;50.428;8.378;2022-10-16T01:47:41;13.40;99.90
64855;DHT22;51321;50.428;8.378;2022-10-16T01:50:04;13.50;99.90
64855;DHT22;51321;50.428;8.378;2022-10-16T01:52:27;13.40;99.90
64855;DHT22;51321;50.428;8.378;2022-10-16T01:54:50;13.50;99.90
64855;DHT22;51321;50.428;8.378;2022-10-16T01:57:14;13.40;99.90
64855;DHT22;51321;50.428;8.378;2022-10-16T01:59:38;13.40;99.90
64855;DHT22;51321;50.428;8.378;2022-10-16T02:02:04;13.40;99.90
64855;DHT22;51321;50.428;8.378;2022-10-16T02:04:29;13.40;99.90
64855;DHT22;51321;50.428;8.378;2022-10-16T02:06:52;13.40;99.90
64855;DHT22;51321;50.428;8.378;2022-10-16T02:09:14;13.30;99.90
64855;DHT22;51321;50.428;8.378;2022-10-16T02:11:37;13.20;99.90
64855;DHT22;51321;50.428;8.378;2022-10-16T02:14:00;13.20;99.90
64855;DHT22;51321;50.428;8.378;2022-10-16T02:16:23;13.20;99.90
64855;DHT22;51321;50.428;8.378;2022-10-16T02:18:46;13.30;99.90
64855;DHT22;51321;50.428;8.378;2022-10-16T02:21:10;13.20;99.90
64855;DHT22;51321;50.428;8.378;2022-10-16T02:23:40;13.20;99.90
64855;DHT22;51321;50.428;8.378;2022-10-16T02:26:04;13.30;99.90
64855;DHT22;51321;50.428;8.378;2022-10-16T02:28:34;13.40;99.90
64855;DHT22;51321;50.428;8.378;2022-10-16T02:30:59;13.40;99.90
64855;DHT22;51321;50.428;8.378;2022-10-16T02:33:23;13.30;99.90
64855;DHT22;51321;50.428;8.378;2022-10-16T02:35:48;13.50;99.90
64855;DHT22;51321;50.428;8.378;2022-10-16T02:38:11;13.50;99.90
64855;DHT22;51321;50.428;8.378;2022-10-16T02:40:33;13.50;99.90
64855;DHT22;51321;50.428;8.378;2022-10-16T02:42:55;13.40;99.90
64855;DHT22;51321;50.428;8.378;2022-10-16T02:45:17;13.40;99.90
64855;DHT22;51321;50.428;8.378;2022-10-16T02:47:39;13.40;99.90
64855;DHT22;51321;50.428;8.378;2022-10-16T02:50:01;13.50;99.90
64855;DHT22;51321;50.428;8.378;2022-10-16T02:52:24;13.50;99.90
64855;DHT22;51321;50.428;8.378;2022-10-16T02:54:47;13.50;99.90
64855;DHT22;51321;50.428;8.378;2022-10-16T02:57:09;13.60;99.90
64855;DHT22;51321;50.428;8.378;2022-10-16T02:59:31;13.60;99.90
64855;DHT22;51321;50.428;8.378;2022-10-16T03:01:53;13.60;99.90
64855;DHT22;51321;50.428;8.378;2022-10-16T03:04:14;13.60;99.90
64855;DHT22;51321;50.428;8.378;2022-10-16T03:06:36;13.60;99.90
64855;DHT22;51321;50.428;8.378;2022-10-16T03:09:00;13.60;99.90
64855;DHT22;51321;50.428;8.378;2022-10-16T03:11:22;13.60;99.90
64855;DHT22;51321;50.428;8.378;2022-10-16T03:13:43;13.50;99.90
64855;DHT22;51321;50.428;8.378;2022-10-16T03:16:05;13.60;99.90
64855;DHT22;51321;50.428;8.378;2022-10-16T03:18:27;13.60;99.90
64855;DHT22;51321;50.428;8.378;2022-10-16T03:20:49;13.60;99.90
64855;DHT22;51321;50.428;8.378;2022-10-16T03:23:11;13.60;99.90
64855;DHT22;51321;50.428;8.378;2022-10-16T03:25:35;13.60;99.90
64855;DHT22;51321;50.428;8.378;2022-10-16T03:27:56;13.60;99.90
64855;DHT22;51321;50.428;8.378;2022-10-16T03:30:18;13.70;99.90
64855;DHT22;51321;50.428;8.378;2022-10-16T03:32:41;13.70;99.90
64855;DHT22;51321;50.428;8.378;2022-10-16T03:35:03;13.70;99.90
64855;DHT22;51321;50.428;8.378;2022-10-16T03:37:25;13.70;99.90
64855;DHT22;51321;50.428;8.378;2022-10-16T03:39:47;13.70;99.90
64855;DHT22;51321;50.428;8.378;2022-10-16T03:42:10;13.80;99.90
64855;DHT22;51321;50.428;8.378;2022-10-16T03:44:33;13.70;99.90
64855;DHT22;51321;50.428;8.378;2022-10-16T03:46:55;13.80;99.90
64855;DHT22;51321;50.428;8.378;2022-10-16T03:49:17;13.90;99.90
64855;DHT22;51321;50.428;8.378;2022-10-16T03:51:39;13.80;99.90
64855;DHT22;51321;50.428;8.378;2022-10-16T03:54:01;13.80;99.90
64855;DHT22;51321;50.428;8.378;2022-10-16T03:56:23;13.80;99.90
64855;DHT22;51321;50.428;8.378;2022-10-16T03:58:46;13.70;99.90
64855;DHT22;51321;50.428;8.378;2022-10-16T04:01:08;13.70;99.90
64855;DHT22;51321;50.428;8.378;2022-10-16T04:03:30;13.60;99.90
64855;DHT22;51321;50.428;8.378;2022-10-16T04:05:52;13.70;99.90
64855;DHT22;51321;50.428;8.378;2022-10-16T04:08:14;13.70;99.90
64855;DHT22;51321;50.428;8.378;2022-10-16T04:10:36;13.60;99.90
64855;DHT22;51321;50.428;8.378;2022-10-16T04:12:58;13.70;99.90
64855;DHT22;51321;50.428;8.378;2022-10-16T04:15:21;13.60;99.90
64855;DHT22;51321;50.428;8.378;2022-10-16T04:17:43;13.40;99.90
64855;DHT22;51321;50.428;8.378;2022-10-16T04:20:05;13.40;99.90
64855;DHT22;51321;50.428;8.378;2022-10-16T04:22:27;13.40;99.90
64855;DHT22;51321;50.428;8.378;2022-10-16T04:24:49;13.40;99.90
64855;DHT22;51321;50.428;8.378;2022-10-16T04:27:11;13.40;99.90
64855;DHT22;51321;50.428;8.378;2022-10-16T04:29:33;13.40;99.90
64855;DHT22;51321;50.428;8.378;2022-10-16T04:31:56;13.40;99.90
64855;DHT22;51321;50.428;8.378;2022-10-16T04:34:18;13.40;99.90
64855;DHT22;51321;50.428;8.378;2022-10-16T04:36:40;13.50;99.90
64855;DHT22;51321;50.428;8.378;2022-10-16T04:39:02;13.40;99.90
64855;DHT22;51321;50.428;8.378;2022-10-16T04:41:24;13.40;99.90
64855;DHT22;51321;50.428;8.378;2022-10-16T04:43:46;13.40;99.90
64855;DHT22;51321;50.428;8.378;2022-10-16T04:46:07;13.40;99.90
64855;DHT22;51321;50.428;8.378;2022-10-16T04:48:32;13.40;99.90
64855;DHT22;51321;50.428;8.378;2022-10-16T04:50:54;13.40;99.90
64855;DHT22;51321;50.428;8.378;2022-10-16T04:53:16;13.50;99.90
64855;DHT22;51321;50.428;8.378;2022-10-16T04:55:38;13.50;99.90
64855;DHT22;51321;50.428;8.378;2022-10-16T04:58:00;13.40;99.90
64855;DHT22;51321;50.428;8.378;2022-10-16T05:00:21;13.40;99.90
64855;DHT22;51321;50.428;8.378;2022-10-16T05:02:43;13.40;99.90
64855;DHT22;51321;50.428;8.378;2022-10-16T05:05:07;13.40;99.90
64855;DHT22;51321;50.428;8.378;2022-10-16T05:07:29;13.50;99.90
64855;DHT22;51321;50.428;8.378;2022-10-16T05:09:51;13.50;99.90
64855;DHT22;51321;50.428;8.378;2022-10-16T05:12:13;13.50;99.90
64855;DHT22;51321;50.428;8.378;2022-10-16T05:14:35;13.50;99.90
64855;DHT22;51321;50.428;8.378;2022-10-16T05:16:57;13.40;99.90
64855;DHT22;51321;50.428;8.378;2022-10-16T05:19:19;13.50;99.90
64855;DHT22;51321;50.428;8.378;2022-10-16T05:21:42;13.40;99.90
64855;DHT22;51321;50.428;8.378;2022-10-16T05:24:04;13.40;99.90
64855;DHT22;51321;50.428;8.378;2022-10-16T05:26:26;13.50;99.90
64855;DHT22;51321;50.428;8.378;2022-10-16T05:28:48;13.50;99.90
64855;DHT22;51321;50.428;8.378;2022-10-16T05:31:10;13.50;99.90
64855;DHT22;51321;50.428;8.378;2022-10-16T05:33:32;13.40;99.90
64855;DHT22;51321;50.428;8.378;2022-10-16T05:35:54;13.40;99.90
64855;DHT22;51321;50.428;8.378;2022-10-16T05:38:18;13.40;99.90
64855;DHT22;51321;50.428;8.378;2022-10-16T05:40:40;13.40;99.90
64855;DHT22;51321;50.428;8.378;2022-10-16T05:43:02;13.50;99.90
64855;DHT22;51321;50.428;8.378;2022-10-16T05:45:24;13.50;99.90
64855;DHT22;51321;50.428;8.378;2022-10-16T05:47:45;13.50;99.90
64855;DHT22;51321;50.428;8.378;2022-10-16T05:50:08;13.50;99.90
64855;DHT22;51321;50.428;8.378;2022-10-16T05:52:30;13.40;99.90
64855;DHT22;51321;50.428;8.378;2022-10-16T05:54:54;13.50;99.90
64855;DHT22;51321;50.428;8.378;2022-10-16T05:57:15;13.40;99.90
64855;DHT22;51321;50.428;8.378;2022-10-16T05:59:37;13.40;99.90
64855;DHT22;51321;50.428;8.378;2022-10-16T06:01:59;13.30;99.90
64855;DHT22;51321;50.428;8.378;2022-10-16T06:04:21;13.30;99.90
64855;DHT22;51321;50.428;8.378;2022-10-16T06:06:44;13.50;99.90
64855;DHT22;51321;50.428;8.378;2022-10-16T06:09:06;13.50;99.90
64855;DHT22;51321;50.428;8.378;2022-10-16T06:11:30;13.40;99.90
64855;DHT22;51321;50.428;8.378;2022-10-16T06:13:52;13.50;99.90
64855;DHT22;51321;50.428;8.378;2022-10-16T06:16:14;13.50;99.90
64855;DHT22;51321;50.428;8.378;2022-10-16T06:18:36;13.50;99.90
64855;DHT22;51321;50.428;8.378;2022-10-16T06:20:58;13.50;99.90
64855;DHT22;51321;50.428;8.378;2022-10-16T06:23:20;13.50;99.90
64855;DHT22;51321;50.428;8.378;2022-10-16T06:25:42;13.50;99.90
64855;DHT22;51321;50.428;8.378;2022-10-16T06:28:05;13.50;99.90
64855;DHT22;51321;50.428;8.378;2022-10-16T06:30:27;13.50;99.90
64855;DHT22;51321;50.428;8.378;2022-10-16T06:32:49;13.50;99.90
64855;DHT22;51321;50.428;8.378;2022-10-16T06:35:11;13.60;99.90
64855;DHT22;51321;50.428;8.378;2022-10-16T06:37:33;13.60;99.90
64855;DHT22;51321;50.428;8.378;2022-10-16T06:39:55;13.80;99.90
64855;DHT22;51321;50.428;8.378;2022-10-16T06:42:17;13.70;99.90
64855;DHT22;51321;50.428;8.378;2022-10-16T06:44:40;13.70;99.90
64855;DHT22;51321;50.428;8.378;2022-10-16T06:47:02;13.70;99.90
64855;DHT22;51321;50.428;8.378;2022-10-16T06:49:24;13.70;99.90
64855;DHT22;51321;50.428;8.378;2022-10-16T06:51:46;13.80;99.90
64855;DHT22;51321;50.428;8.378;2022-10-16T06:54:08;13.80;99.90
64855;DHT22;51321;50.428;8.378;2022-10-16T06:56:30;13.80;99.90
64855;DHT22;51321;50.428;8.378;2022-10-16T06:58:52;13.80;99.90
64855;DHT22;51321;50.428;8.378;2022-10-16T07:01:17;13.80;99.90
64855;DHT22;51321;50.428;8.378;2022-10-16T07:03:40;13.90;99.90
64855;DHT22;51321;50.428;8.378;2022-10-16T07:06:02;13.80;99.90
64855;DHT22;51321;50.428;8.378;2022-10-16T07:08:24;13.90;99.90
64855;DHT22;51321;50.428;8.378;2022-10-16T07:10:46;13.90;99.90
64855;DHT22;51321;50.428;8.378;2022-10-16T07:13:09;13.90;99.90
64855;DHT22;51321;50.428;8.378;2022-10-16T07:15:33;14.00;99.90
64855;DHT22;51321;50.428;8.378;2022-10-16T07:17:57;14.00;99.90
64855;DHT22;51321;50.428;8.378;2022-10-16T07:20:19;14.00;99.90
64855;DHT22;51321;50.428;8.378;2022-10-16T07:22:41;14.00;99.90
64855;DHT22;51321;50.428;8.378;2022-10-16T07:25:03;14.00;99.90
64855;DHT22;51321;50.428;8.378;2022-10-16T07:27:25;14.10;99.90
64855;DHT22;51321;50.428;8.378;2022-10-16T07:29:46;14.10;99.90
64855;DHT22;51321;50.428;8.378;2022-10-16T07:32:08;14.10;99.90
64855;DHT22;51321;50.428;8.378;2022-10-16T07:34:32;14.10;99.90
64855;DHT22;51321;50.428;8.378;2022-10-16T07:36:54;14.10;99.90
64855;DHT22;51321;50.428;8.378;2022-10-16T07:39:15;14.20;99.90
64855;DHT22;51321;50.428;8.378;2022-10-16T07:41:37;14.10;99.90
64855;DHT22;51321;50.428;8.378;2022-10-16T07:43:59;14.30;99.90
64855;DHT22;51321;50.428;8.378;2022-10-16T07:46:21;14.30;99.90
64855;DHT22;51321;50.428;8.378;2022-10-16T07:48:44;14.30;99.90
64855;DHT22;51321;50.428;8.378;2022-10-16T07:51:10;14.30;99.90
64855;DHT22;51321;50.428;8.378;2022-10-16T07:53:31;14.30;99.90
64855;DHT22;51321;50.428;8.378;2022-10-16T07:55:56;14.40;99.90
64855;DHT22;51321;50.428;8.378;2022-10-16T07:58:18;14.60;99.90
64855;DHT22;51321;50.428;8.378;2022-10-16T08:00:40;14.60;99.90
64855;DHT22;51321;50.428;8.378;2022-10-16T08:03:02;14.70;99.90
64855;DHT22;51321;50.428;8.378;2022-10-16T08:05:24;14.60;99.90
64855;DHT22;51321;50.428;8.378;2022-10-16T08:07:49;14.50;99.90
64855;DHT22;51321;50.428;8.378;2022-10-16T08:10:11;14.50;99.90
64855;DHT22;51321;50.428;8.378;2022-10-16T08:12:37;14.60;99.90
64855;DHT22;51321;50.428;8.378;2022-10-16T08:14:59;14.70;99.90
64855;DHT22;51321;50.428;8.378;2022-10-16T08:17:21;14.80;99.90
64855;DHT22;51321;50.428;8.378;2022-10-16T08:19:44;14.90;99.90
64855;DHT22;51321;50.428;8.378;2022-10-16T08:22:05;14.90;99.90
64855;DHT22;51321;50.428;8.378;2022-10-16T08:24:29;15.00;99.90
64855;DHT22;51321;50.428;8.378;2022-10-16T08:26:53;15.10;99.90
64855;DHT22;51321;50.428;8.378;2022-10-16T08:29:14;15.10;99.90
64855;DHT22;51321;50.428;8.378;2022-10-16T08:31:36;15.10;99.90
64855;DHT22;51321;50.428;8.378;2022-10-16T08:33:58;15.20;99.90
64855;DHT22;51321;50.428;8.378;2022-10-16T08:36:20;15.20;99.90
64855;DHT22;51321;50.428;8.378;2022-10-16T08:38:42;15.30;99.90
64855;DHT22;51321;50.428;8.378;2022-10-16T08:43:58;15.40;99.90
64855;DHT22;51321;50.428;8.378;2022-10-16T08:46:24;15.40;99.90
64855;DHT22;51321;50.428;8.378;2022-10-16T08:48:51;15.50;99.90
64855;DHT22;51321;50.428;8.378;2022-10-16T08:51:15;15.60;99.90
64855;DHT22;51321;50.428;8.378;2022-10-16T08:53:41;15.70;99.90
64855;DHT22;51321;50.428;8.378;2022-10-16T08:56:04;15.90;99.90
64855;DHT22;51321;50.428;8.378;2022-10-16T08:58:27;16.00;99.90
64855;DHT22;51321;50.428;8.378;2022-10-16T09:00:52;16.00;99.90
64855;DHT22;51321;50.428;8.378;2022-10-16T09:03:17;16.00;99.90
64855;DHT22;51321;50.428;8.378;2022-10-16T09:05:48;16.10;99.90
64855;DHT22;51321;50.428;8.378;2022-10-16T09:08:14;16.20;99.90
64855;DHT22;51321;50.428;8.378;2022-10-16T09:10:42;16.40;99.90
64855;DHT22;51321;50.428;8.378;2022-10-16T09:13:09;16.40;99.90
64855;DHT22;51321;50.428;8.378;2022-10-16T09:15:35;16.50;99.90
64855;DHT22;51321;50.428;8.378;2022-10-16T09:18:02;16.50;99.90
64855;DHT22;51321;50.428;8.378;2022-10-16T09:20:30;16.70;99.90
64855;DHT22;51321;50.428;8.378;2022-10-16T09:22:54;16.90;99.90
64855;DHT22;51321;50.428;8.378;2022-10-16T09:25:17;17.10;99.90
64855;DHT22;51321;50.428;8.378;2022-10-16T09:27:39;17.20;99.90
64855;DHT22;51321;50.428;8.378;2022-10-16T09:30:01;17.20;99.90
64855;DHT22;51321;50.428;8.378;2022-10-16T09:32:28;17.20;99.90
64855;DHT22;51321;50.428;8.378;2022-10-16T09:34:52;17.10;99.90
64855;DHT22;51321;50.428;8.378;2022-10-16T09:37:14;17.00;99.90
64855;DHT22;51321;50.428;8.378;2022-10-16T09:39:45;17.00;99.90
64855;DHT22;51321;50.428;8.378;2022-10-16T09:42:09;17.10;99.90
64855;DHT22;51321;50.428;8.378;2022-10-16T09:44:31;17.10;99.90
64855;DHT22;51321;50.428;8.378;2022-10-16T09:47:03;17.10;99.90
64855;DHT22;51321;50.428;8.378;2022-10-16T09:49:26;17.10;99.90
64855;DHT22;51321;50.428;8.378;2022-10-16T09:51:49;17.00;99.90
64855;DHT22;51321;50.428;8.378;2022-10-16T09:54:13;17.00;99.90
64855;DHT22;51321;50.428;8.378;2022-10-16T09:56:36;17.10;99.90
64855;DHT22;51321;50.428;8.378;2022-10-16T09:59:00;16.90;99.90
64855;DHT22;51321;50.428;8.378;2022-10-16T10:01:22;16.80;99.90
64855;DHT22;51321;50.428;8.378;2022-10-16T10:03:45;16.90;99.90
64855;DHT22;51321;50.428;8.378;2022-10-16T10:06:16;16.90;99.90
64855;DHT22;51321;50.428;8.378;2022-10-16T10:08:40;16.90;99.90
64855;DHT22;51321;50.428;8.378;2022-10-16T10:11:02;17.00;99.90
64855;DHT22;51321;50.428;8.378;2022-10-16T10:13:25;17.20;99.90
64855;DHT22;51321;50.428;8.378;2022-10-16T10:15:47;17.20;99.90
64855;DHT22;51321;50.428;8.378;2022-10-16T10:18:15;17.20;99.90
64855;DHT22;51321;50.428;8.378;2022-10-16T10:20:37;17.30;99.90
64855;DHT22;51321;50.428;8.378;2022-10-16T10:23:00;17.40;99.90
64855;DHT22;51321;50.428;8.378;2022-10-16T10:25:26;17.50;99.90
64855;DHT22;51321;50.428;8.378;2022-10-16T10:27:53;17.60;99.90
64855;DHT22;51321;50.428;8.378;2022-10-16T10:30:18;17.60;99.90
64855;DHT22;51321;50.428;8.378;2022-10-16T10:32:43;17.70;99.90
64855;DHT22;51321;50.428;8.378;2022-10-16T10:35:13;17.70;99.90
64855;DHT22;51321;50.428;8.378;2022-10-16T10:37:39;17.70;99.90
64855;DHT22;51321;50.428;8.378;2022-10-16T10:40:06;17.80;99.90
64855;DHT22;51321;50.428;8.378;2022-10-16T10:42:35;17.80;99.90
64855;DHT22;51321;50.428;8.378;2022-10-16T10:45:03;17.90;99.90
64855;DHT22;51321;50.428;8.378;2022-10-16T10:47:32;17.80;99.90
64855;DHT22;51321;50.428;8.378;2022-10-16T10:50:02;17.90;99.90
64855;DHT22;51321;50.428;8.378;2022-10-16T10:52:31;18.10;99.90
64855;DHT22;51321;50.428;8.378;2022-10-16T10:54:57;18.30;99.90
64855;DHT22;51321;50.428;8.378;2022-10-16T10:57:25;18.50;99.90
64855;DHT22;51321;50.428;8.378;2022-10-16T10:59:55;18.70;99.90
64855;DHT22;51321;50.428;8.378;2022-10-16T11:02:21;18.70;99.90
64855;DHT22;51321;50.428;8.378;2022-10-16T11:04:49;18.80;99.90
64855;DHT22;51321;50.428;8.378;2022-10-16T11:07:15;18.70;99.90
64855;DHT22;51321;50.428;8.378;2022-10-16T11:09:39;18.90;99.90
64855;DHT22;51321;50.428;8.378;2022-10-16T11:12:02;18.90;99.90
64855;DHT22;51321;50.428;8.378;2022-10-16T11:14:28;19.00;99.90
64855;DHT22;51321;50.428;8.378;2022-10-16T11:16:54;19.30;99.90
64855;DHT22;51321;50.428;8.378;2022-10-16T11:19:21;19.50;99.90
64855;DHT22;51321;50.428;8.378;2022-10-16T11:21:47;19.70;99.90
64855;DHT22;51321;50.428;8.378;2022-10-16T11:24:13;19.80;99.90
64855;DHT22;51321;50.428;8.378;2022-10-16T11:26:39;19.70;99.90
64855;DHT22;51321;50.428;8.378;2022-10-16T11:29:03;19.60;99.90
64855;DHT22;51321;50.428;8.378;2022-10-16T11:31:28;19.50;99.90
64855;DHT22;51321;50.428;8.378;2022-10-16T11:33:54;19.60;99.90
64855;DHT22;51321;50.428;8.378;2022-10-16T11:36:19;19.30;99.90
64855;DHT22;51321;50.428;8.378;2022-10-16T11:38:44;19.10;99.90
64855;DHT22;51321;50.428;8.378;2022-10-16T11:41:10;19.10;99.90
64855;DHT22;51321;50.428;8.378;2022-10-16T11:43:35;19.00;99.90
64855;DHT22;51321;50.428;8.378;2022-10-16T11:46:00;19.00;99.90
64855;DHT22;51321;50.428;8.378;2022-10-16T11:48:25;19.10;99.90
64855;DHT22;51321;50.428;8.378;2022-10-16T11:50:52;19.00;99.90
64855;DHT22;51321;50.428;8.378;2022-10-16T11:53:16;19.00;99.90
64855;DHT22;51321;50.428;8.378;2022-10-16T11:55:39;19.10;99.90
64855;DHT22;51321;50.428;8.378;2022-10-16T11:58:01;19.20;99.90
64855;DHT22;51321;50.428;8.378;2022-10-16T12:00:28;19.30;99.90
64855;DHT22;51321;50.428;8.378;2022-10-16T12:02:53;19.40;99.90
64855;DHT22;51321;50.428;8.378;2022-10-16T12:05:22;19.50;99.90
64855;DHT22;51321;50.428;8.378;2022-10-16T12:07:48;19.60;99.90
64855;DHT22;51321;50.428;8.378;2022-10-16T12:10:17;19.50;99.90
64855;DHT22;51321;50.428;8.378;2022-10-16T12:12:40;19.60;99.90
64855;DHT22;51321;50.428;8.378;2022-10-16T12:15:18;19.60;99.90
64855;DHT22;51321;50.428;8.378;2022-10-16T12:17:40;19.60;99.90
64855;DHT22;51321;50.428;8.378;2022-10-16T12:20:18;19.60;99.90
64855;DHT22;51321;50.428;8.378;2022-10-16T12:22:41;19.60;99.90
64855;DHT22;51321;50.428;8.378;2022-10-16T12:25:05;19.80;99.90
64855;DHT22;51321;50.428;8.378;2022-10-16T12:27:28;19.90;99.90
64855;DHT22;51321;50.428;8.378;2022-10-16T12:29:53;20.10;99.90
64855;DHT22;51321;50.428;8.378;2022-10-16T12:32:22;20.40;99.90
64855;DHT22;51321;50.428;8.378;2022-10-16T12:34:46;20.50;99.90
64855;DHT22;51321;50.428;8.378;2022-10-16T12:37:10;20.60;99.90
64855;DHT22;51321;50.428;8.378;2022-10-16T12:39:34;20.40;99.90
64855;DHT22;51321;50.428;8.378;2022-10-16T12:42:03;20.10;99.90
64855;DHT22;51321;50.428;8.378;2022-10-16T12:44:25;20.10;99.90
64855;DHT22;51321;50.428;8.378;2022-10-16T12:46:47;20.10;99.90
64855;DHT22;51321;50.428;8.378;2022-10-16T12:51:50;19.90;99.90
64855;DHT22;51321;50.428;8.378;2022-10-16T12:54:13;19.90;99.90
64855;DHT22;51321;50.428;8.378;2022-10-16T12:56:39;20.10;99.90
64855;DHT22;51321;50.428;8.378;2022-10-16T12:59:07;20.20;99.90
64855;DHT22;51321;50.428;8.378;2022-10-16T13:01:40;20.30;99.90
64855;DHT22;51321;50.428;8.378;2022-10-16T13:04:10;20.30;99.90
64855;DHT22;51321;50.428;8.378;2022-10-16T13:06:37;20.30;99.90
64855;DHT22;51321;50.428;8.378;2022-10-16T13:09:13;20.30;99.90
64855;DHT22;51321;50.428;8.378;2022-10-16T13:11:43;20.30;99.90
64855;DHT22;51321;50.428;8.378;2022-10-16T13:14:14;20.30;99.90
64855;DHT22;51321;50.428;8.378;2022-10-16T13:16:41;20.40;99.90
64855;DHT22;51321;50.428;8.378;2022-10-16T13:19:10;20.50;99.90
64855;DHT22;51321;50.428;8.378;2022-10-16T13:21:39;20.30;99.90
64855;DHT22;51321;50.428;8.378;2022-10-16T13:24:07;20.30;99.90
64855;DHT22;51321;50.428;8.378;2022-10-16T13:26:35;20.20;99.90
64855;DHT22;51321;50.428;8.378;2022-10-16T13:28:59;20.10;99.90
64855;DHT22;51321;50.428;8.378;2022-10-16T13:31:23;20.00;99.90
64855;DHT22;51321;50.428;8.378;2022-10-16T13:33:47;19.80;99.90
64855;DHT22;51321;50.428;8.378;2022-10-16T13:36:17;19.70;99.90
64855;DHT22;51321;50.428;8.378;2022-10-16T13:38:40;19.50;99.90
64855;DHT22;51321;50.428;8.378;2022-10-16T13:41:03;19.50;99.90
64855;DHT22;51321;50.428;8.378;2022-10-16T13:43:26;19.70;99.90
64855;DHT22;51321;50.428;8.378;2022-10-16T13:45:58;19.80;99.90
64855;DHT22;51321;50.428;8.378;2022-10-16T13:48:22;19.90;99.90
64855;DHT22;51321;50.428;8.378;2022-10-16T13:50:44;19.80;99.90
64855;DHT22;51321;50.428;8.378;2022-10-16T13:53:09;19.70;99.90
64855;DHT22;51321;50.428;8.378;2022-10-16T13:55:34;19.70;99.90
64855;DHT22;51321;50.428;8.378;2022-10-16T13:58:04;19.70;99.90
64855;DHT22;51321;50.428;8.378;2022-10-16T14:00:26;19.80;99.90
64855;DHT22;51321;50.428;8.378;2022-10-16T14:02:51;19.90;99.90
64855;DHT22;51321;50.428;8.378;2022-10-16T14:05:15;19.90;99.90
64855;DHT22;51321;50.428;8.378;2022-10-16T14:07:37;19.90;99.90
64855;DHT22;51321;50.428;8.378;2022-10-16T14:10:02;19.90;99.90
64855;DHT22;51321;50.428;8.378;2022-10-16T14:12:25;19.90;99.90
64855;DHT22;51321;50.428;8.378;2022-10-16T14:14:47;19.90;99.90
64855;DHT22;51321;50.428;8.378;2022-10-16T14:17:13;19.80;99.90
64855;DHT22;51321;50.428;8.378;2022-10-16T14:19:35;19.70;99.90
64855;DHT22;51321;50.428;8.378;2022-10-16T14:21:58;19.60;99.90
64855;DHT22;51321;50.428;8.378;2022-10-16T14:24:25;19.60;99.90
64855;DHT22;51321;50.428;8.378;2022-10-16T14:26:47;19.50;99.90
64855;DHT22;51321;50.428;8.378;2022-10-16T14:29:13;19.60;99.90
64855;DHT22;51321;50.428;8.378;2022-10-16T14:31:35;19.60;99.90
64855;DHT22;51321;50.428;8.378;2022-10-16T14:33:58;19.60;99.90
64855;DHT22;51321;50.428;8.378;2022-10-16T14:36:21;19.60;99.90
64855;DHT22;51321;50.428;8.378;2022-10-16T14:38:49;19.60;99.90
64855;DHT22;51321;50.428;8.378;2022-10-16T14:41:15;19.60;99.90
64855;DHT22;51321;50.428;8.378;2022-10-16T14:43:37;19.60;99.90
64855;DHT22;51321;50.428;8.378;2022-10-16T14:46:00;19.60;99.90
64855;DHT22;51321;50.428;8.378;2022-10-16T14:48:23;19.50;99.90
64855;DHT22;51321;50.428;8.378;2022-10-16T14:50:45;19.50;99.90
64855;DHT22;51321;50.428;8.378;2022-10-16T14:53:08;19.50;99.90
64855;DHT22;51321;50.428;8.378;2022-10-16T14:55:31;19.40;99.90
64855;DHT22;51321;50.428;8.378;2022-10-16T14:57:53;19.50;99.90
64855;DHT22;51321;50.428;8.378;2022-10-16T15:00:16;19.40;99.90
64855;DHT22;51321;50.428;8.378;2022-10-16T15:02:39;19.30;99.90
64855;DHT22;51321;50.428;8.378;2022-10-16T15:05:04;19.30;99.90
64855;DHT22;51321;50.428;8.378;2022-10-16T15:07:31;19.20;99.90
64855;DHT22;51321;50.428;8.378;2022-10-16T15:09:53;19.20;99.90
64855;DHT22;51321;50.428;8.378;2022-10-16T15:12:18;19.20;99.90
64855;DHT22;51321;50.428;8.378;2022-10-16T15:14:40;19.10;99.90